Time;durP1;ratioP1;P1;durP2;ratioP2;P2;SDS_P1;SDS_P2;PMS_P1;PMS_P2;Temp;Humidity;BMP_temperature;BMP_pressure;BME280_temperature;BME280_humidity;BME280_pressure;Samples;Min_cycle;Max_cycle;Signal;HPM_P1;HPM_P2
2021/06/19 00:02:09;;;;;;;;;;;;;;;;;;5061510;28;21060;-78
2021/06/19 00:04:35;;;;;;;;;;;;;;;;;;5059529;28;19913;-79
2021/06/19 00:07:01;;;;;;;;;;;;;;;;;;5077718;28;19948;-78
2021/06/19 00:09:27;;;;;;;;;;;;;;;;;;5066865;28;19912;-79
2021/06/19 00:11:53;;;;;;;;;;;;;;;;;;5072835;28;19913;-78
2021/06/19 00:14:18;;;;;;;;;;;;;;;;;;5067638;28;20448;-78
2021/06/19 00:16:44;;;;;;;;;;;;;;;;;;5068219;28;19920;-79
2021/06/19 00:19:10;;;;;;;;;;;;;;;;;;5060205;28;19936;-79
2021/06/19 00:21:36;;;;;;;;;;;;;;;;;;5070953;28;19905;-79
2021/06/19 00:24:02;;;;;;;;;;;;;;;;;;5069972;28;19916;-78
2021/06/19 00:26:28;;;;;;;;;;;;;;;;;;5061515;28;20295;-78
2021/06/19 00:28:54;;;;;;;;;;;;;;;;;;5054874;28;19909;-78
2021/06/19 00:31:20;;;;;;;;;;;;;;;;;;5068198;28;19920;-78
2021/06/19 00:33:46;;;;;;;;;;;;;;;;;;5064421;28;20321;-79
2021/06/19 00:36:12;;;;;;;;;;;;;;;;;;5060006;28;19959;-79
2021/06/19 00:38:37;;;;;;;;;;;;;;;;;;5064916;28;19933;-79
2021/06/19 00:41:03;;;;;;;;;;;;;;;;;;5063463;28;19971;-79
2021/06/19 00:43:29;;;;;;;;;;;;;;;;;;5057444;28;19975;-78
2021/06/19 00:45:55;;;;;;;;;;;;;;;;;;5065949;28;19913;-80
2021/06/19 00:48:21;;;;;;;;;;;;;;;;;;5058953;28;20422;-80
2021/06/19 00:50:47;;;;;;;;;;;;;;;;;;5056810;28;19920;-79
2021/06/19 00:53:13;;;;;;;;;;;;;;;;;;5066483;28;20509;-79
2021/06/19 00:55:39;;;;;;;;;;;;;;;;;;5068501;28;19912;-79
2021/06/19 00:58:05;;;;;;;;;;;;;;;;;;5070558;28;19919;-80
2021/06/19 01:00:31;;;;;;;;;;;;;;;;;;5057960;28;20007;-79
2021/06/19 01:02:57;;;;;;;;;;;;;;;;;;5062515;28;19916;-79
2021/06/19 01:05:23;;;;;;;;;;;;;;;;;;5069523;28;20358;-79
2021/06/19 01:07:48;;;;;;;;;;;;;;;;;;5065861;28;19955;-79
2021/06/19 01:10:14;;;;;;;;;;;;;;;;;;5063284;28;20367;-80
2021/06/19 01:12:40;;;;;;;;;;;;;;;;;;5061832;28;19920;-80
2021/06/19 01:15:06;;;;;;;;;;;;;;;;;;5056146;28;20286;-79
2021/06/19 01:17:32;;;;;;;;;;;;;;;;;;5068430;28;19908;-79
2021/06/19 01:19:58;;;;;;;;;;;;;;;;;;5076976;28;20356;-79
2021/06/19 01:22:24;;;;;;;;;;;;;;;;;;5065631;28;19920;-79
2021/06/19 01:24:51;;;;;;;;;;;;;;;;;;5063767;28;19916;-79
2021/06/19 01:27:17;;;;;;;;;;;;;;;;;;5072772;28;20336;-79
2021/06/19 01:29:43;;;;;;;;;;;;;;;;;;5069908;28;19962;-79
2021/06/19 01:32:08;;;;;;;;;;;;;;;;;;5072861;28;19920;-79
2021/06/19 01:34:34;;;;;;;;;;;;;;;;;;5077445;28;19974;-79
2021/06/19 01:37:00;;;;;;;;;;;;;;;;;;5066571;28;19934;-79
2021/06/19 01:39:26;;;;;;;;;;;;;;;;;;5062017;28;20020;-79
2021/06/19 01:41:52;;;;;;;;;;;;;;;;;;5066901;28;19919;-79
2021/06/19 01:44:18;;;;;;;;;;;;;;;;;;5072751;28;19942;-79
2021/06/19 01:46:44;;;;;;;;;;;;;;;;;;5067208;28;19919;-79
2021/06/19 01:49:10;;;;;;;;;;;;;;;;;;5067994;28;19908;-79
2021/06/19 01:51:36;;;;;;;;;;;;;;;;;;5066706;28;19947;-79
2021/06/19 01:54:02;;;;;;;;;;;;;;;;;;5066458;28;19919;-78
2021/06/19 01:56:28;;;;;;;;;;;;;;;;;;5060641;28;20055;-79
2021/06/19 01:58:54;;;;;;;;;;;;;;;;;;5071971;28;19912;-79
2021/06/19 02:01:19;;;;;;;;;;;;;;;;;;5068863;28;20378;-78
2021/06/19 02:03:45;;;;;;;;;;;;;;;;;;5078034;28;20387;-79
2021/06/19 02:06:11;;;;;;;;;;;;;;;;;;5070222;28;19913;-79
2021/06/19 02:08:37;;;;;;;;;;;;;;;;;;5073918;28;19924;-79
2021/06/19 02:11:03;;;;;;;;;;;;;;;;;;5062633;28;19913;-79
2021/06/19 02:13:30;;;;;;;;;;;;;;;;;;5066723;28;20041;-79
2021/06/19 02:15:56;;;;;;;;;;;;;;;;;;5068891;28;19916;-79
2021/06/19 02:18:21;;;;;;;;;;;;;;;;;;5071867;28;19908;-79
2021/06/19 02:20:51;;;;;;;;;;;;;;;;;;5064132;28;19928;-79
2021/06/19 02:23:17;;;;;;;;;;;;;;;;;;5074271;28;20416;-79
2021/06/19 02:25:44;;;;;;;;;;;;;;;;;;5072654;28;19912;-79
2021/06/19 02:28:10;;;;;;;;;;;;;;;;;;5055610;28;19965;-79
2021/06/19 02:30:36;;;;;;;;;;;;;;;;;;5069951;28;20337;-79
2021/06/19 02:33:02;;;;;;;;;;;;;;;;;;5069612;28;19913;-79
2021/06/19 02:35:28;;;;;;;;;;;;;;;;;;5071239;28;20362;-79
2021/06/19 02:37:54;;;;;;;;;;;;;;;;;;5065646;28;19919;-79
2021/06/19 02:40:19;;;;;;;;;;;;;;;;;;5066575;28;19978;-79
2021/06/19 02:42:45;;;;;;;;;;;;;;;;;;5069112;28;19960;-79
2021/06/19 02:45:12;;;;;;;;;;;;;;;;;;5063294;28;19909;-79
2021/06/19 02:47:38;;;;;;;;;;;;;;;;;;5066567;28;19917;-79
2021/06/19 02:50:04;;;;;;;;;;;;;;;;;;5065392;28;20010;-78
2021/06/19 02:52:30;;;;;;;;;;;;;;;;;;5071255;28;20019;-79
2021/06/19 02:54:56;;;;;;;;;;;;;;;;;;5078136;28;19923;-79
2021/06/19 02:57:22;;;;;;;;;;;;;;;;;;5067373;28;19908;-79
2021/06/19 02:59:47;;;;;;;;;;;;;;;;;;5057602;28;19925;-79
2021/06/19 03:02:13;;;;;;;;;;;;;;;;;;5068048;28;19955;-78
2021/06/19 03:04:39;;;;;;;;;;;;;;;;;;5066763;28;20061;-79
2021/06/19 03:07:05;;;;;;;;;;;;;;;;;;5059155;28;19995;-78
2021/06/19 03:09:31;;;;;;;;;;;;;;;;;;5075569;28;20400;-79
2021/06/19 03:11:57;;;;;;;;;;;;;;;;;;5070097;28;19912;-79
2021/06/19 03:14:23;;;;;;;;;;;;;;;;;;5060127;28;19920;-78
2021/06/19 03:16:49;;;;;;;;;;;;;;;;;;5067756;28;19919;-79
2021/06/19 03:19:15;;;;;;;;;;;;;;;;;;5067631;28;19962;-79
2021/06/19 03:21:42;;;;;;;;;;;;;;;;;;5062071;28;19973;-79
2021/06/19 03:24:08;;;;;;;;;;;;;;;;;;5062263;28;20559;-79
2021/06/19 03:26:34;;;;;;;;;;;;;;;;;;5069680;28;19973;-79
2021/06/19 03:29:00;;;;;;;;;;;;;;;;;;5073304;28;19912;-78
2021/06/19 03:31:28;;;;;;;;;;;;;;;;;;5059704;28;19967;-79
2021/06/19 03:33:53;;;;;;;;;;;;;;;;;;5069777;28;19912;-79
2021/06/19 03:36:19;;;;;;;;;;;;;;;;;;5067407;28;19923;-78
2021/06/19 03:38:45;;;;;;;;;;;;;;;;;;5072096;28;19919;-79
2021/06/19 03:41:11;;;;;;;;;;;;;;;;;;5070347;28;19916;-79
2021/06/19 03:43:37;;;;;;;;;;;;;;;;;;5068152;28;19955;-79
2021/06/19 03:46:03;;;;;;;;;;;;;;;;;;5063370;28;19917;-78
2021/06/19 03:48:29;;;;;;;;;;;;;;;;;;5062305;28;19916;-79
2021/06/19 03:50:55;;;;;;;;;;;;;;;;;;5070345;28;20304;-78
2021/06/19 03:53:21;;;;;;;;;;;;;;;;;;5073516;28;19927;-79
2021/06/19 03:55:47;;;;;;;;;;;;;;;;;;5067880;28;19960;-79
2021/06/19 03:58:13;;;;;;;;;;;;;;;;;;5076533;28;20379;-79
2021/06/19 04:00:39;;;;;;;;;;;;;;;;;;5072472;28;20007;-79
2021/06/19 04:03:05;;;;;;;;;;;;;;;;;;5064876;28;20010;-79
2021/06/19 04:05:31;;;;;;;;;;;;;;;;;;5065233;28;19909;-79
2021/06/19 04:07:56;;;;;;;;;;;;;;;;;;5070221;28;19912;-79
2021/06/19 04:10:22;;;;;;;;;;;;;;;;;;5065407;28;19919;-79
2021/06/19 04:12:48;;;;;;;;;;;;;;;;;;5072138;28;20279;-79
2021/06/19 04:15:14;;;;;;;;;;;;;;;;;;5069403;28;20015;-79
2021/06/19 04:17:40;;;;;;;;;;;;;;;;;;5072228;28;19970;-79
2021/06/19 04:20:06;;;;;;;;;;;;;;;;;;5054636;28;19908;-79
2021/06/19 04:22:32;;;;;;;;;;;;;;;;;;5067424;28;19943;-79
2021/06/19 04:24:58;;;;;;;;;;;;;;;;;;5074198;28;19923;-79
2021/06/19 04:27:24;;;;;;;;;;;;;;;;;;5064037;28;20474;-79
2021/06/19 04:29:50;;;;;;;;;;;;;;;;;;5064749;28;19909;-79
2021/06/19 04:32:16;;;;;;;;;;;;;;;;;;5068113;28;20314;-79
2021/06/19 04:34:42;;;;;;;;;;;;;;;;;;5059926;28;20004;-79
2021/06/19 04:37:08;;;;;;;;;;;;;;;;;;5071014;28;19923;-79
2021/06/19 04:39:34;;;;;;;;;;;;;;;;;;5068559;28;19913;-79
2021/06/19 04:42:06;;;;;;;;;;;;;;;;;;5072740;28;19918;-79
2021/06/19 04:47:07;;;;;;;;;;;;;;;;;;5067267;28;20300;-79
2021/06/19 04:49:33;;;;;;;;;;;;;;;;;;5066164;28;20437;-79
2021/06/19 04:51:59;;;;;;;;;;;;;;;;;;5067260;28;19913;-79
2021/06/19 04:54:24;;;;;;;;;;;;;;;;;;5069189;28;19917;-79
2021/06/19 04:56:50;;;;;;;;;;;;;;;;;;5071325;28;19919;-79
2021/06/19 04:59:16;;;;;;;;;;;;;;;;;;5070528;28;19970;-79
2021/06/19 05:01:42;;;;;;;;;;;;;;;;;;5071220;28;20379;-79
2021/06/19 05:04:08;;;;;;;;;;;;;;;;;;5074032;28;20022;-79
2021/06/19 05:06:34;;;;;;;;;;;;;;;;;;5074695;28;19912;-79
2021/06/19 05:09:00;;;;;;;;;;;;;;;;;;5068732;28;19909;-79
2021/06/19 05:11:26;;;;;;;;;;;;;;;;;;5067543;28;20287;-79
2021/06/19 05:13:52;;;;;;;;;;;;;;;;;;5063846;28;20078;-79
2021/06/19 05:16:18;;;;;;;;;;;;;;;;;;5063902;28;19982;-79
2021/06/19 05:18:44;;;;;;;;;;;;;;;;;;5067931;28;19913;-80
2021/06/19 05:21:10;;;;;;;;;;;;;;;;;;5064568;28;19956;-80
2021/06/19 05:23:36;;;;;;;;;;;;;;;;;;5056856;28;20578;-79
2021/06/19 05:26:02;;;;;;;;;;;;;;;;;;5083090;28;20003;-79
2021/06/19 05:28:28;;;;;;;;;;;;;;;;;;5074750;28;19939;-79
2021/06/19 05:30:53;;;;;;;;;;;;;;;;;;5067594;28;19917;-80
2021/06/19 05:33:19;;;;;;;;;;;;;;;;;;5061673;28;20275;-79
2021/06/19 05:35:45;;;;;;;;;;;;;;;;;;5071700;28;20376;-79
2021/06/19 05:38:11;;;;;;;;;;;;;;;;;;5062489;28;19927;-79
2021/06/19 05:40:37;;;;;;;;;;;;;;;;;;5058114;28;20403;-79
2021/06/19 05:43:03;;;;;;;;;;;;;;;;;;5074177;28;19999;-80
2021/06/19 05:45:29;;;;;;;;;;;;;;;;;;5071644;28;20318;-79
2021/06/19 05:47:55;;;;;;;;;;;;;;;;;;5059924;28;19913;-79
2021/06/19 05:50:21;;;;;;;;;;;;;;;;;;5064162;28;20279;-79
2021/06/19 05:52:47;;;;;;;;;;;;;;;;;;5067127;28;19919;-80
2021/06/19 05:55:12;;;;;;;;;;;;;;;;;;5065953;28;20392;-80
2021/06/19 05:57:38;;;;;;;;;;;;;;;;;;5065714;28;19960;-79
2021/06/19 06:00:04;;;;;;;;;;;;;;;;;;5067327;28;19913;-80
2021/06/19 06:02:30;;;;;;;;;;;;;;;;;;5063073;28;19920;-79
2021/06/19 06:04:56;;;;;;;;;;;;;;;;;;5066005;28;19912;-79
2021/06/19 06:07:22;;;;;;;;;;;;;;;;;;5071009;28;20364;-80
2021/06/19 06:09:48;;;;;;;;;;;;;;;;;;5066338;28;19962;-80
2021/06/19 06:12:14;;;;;;;;;;;;;;;;;;5067353;28;20256;-80
2021/06/19 06:14:40;;;;;;;;;;;;;;;;;;5071039;28;19967;-80
2021/06/19 06:17:06;;;;;;;;;;;;;;;;;;5066102;28;20286;-80
2021/06/19 06:19:31;;;;;;;;;;;;;;;;;;5070214;28;19920;-80
2021/06/19 06:21:57;;;;;;;;;;;;;;;;;;5066889;28;19916;-80
2021/06/19 06:24:23;;;;;;;;;;;;;;;;;;5067897;28;19940;-80
2021/06/19 06:26:49;;;;;;;;;;;;;;;;;;5064150;28;19912;-80
2021/06/19 06:29:15;;;;;;;;;;;;;;;;;;5074171;28;19916;-80
2021/06/19 06:31:41;;;;;;;;;;;;;;;;;;5075459;28;19917;-81
2021/06/19 06:34:07;;;;;;;;;;;;;;;;;;5060015;28;20015;-81
2021/06/19 06:36:33;;;;;;;;;;;;;;;;;;5056331;28;19917;-81
2021/06/19 06:39:03;;;;;;;;;;;;;;;;;;5072389;28;20019;-83
2021/06/19 06:41:29;;;;;;;;;;;;;;;;;;5067832;28;19964;-81
2021/06/19 06:43:54;;;;;;;;;;;;;;;;;;5072438;28;20490;-82
2021/06/19 06:46:20;;;;;;;;;;;;;;;;;;5072446;28;19992;-82
2021/06/19 06:48:48;;;;;;;;;;;;;;;;;;5069790;28;20312;-82
2021/06/19 06:51:14;;;;;;;;;;;;;;;;;;5058874;28;20346;-82
2021/06/19 06:53:40;;;;;;;;;;;;;;;;;;5063033;28;19916;-84
2021/06/19 06:56:06;;;;;;;;;;;;;;;;;;5068360;28;20323;-84
2021/06/19 06:58:32;;;;;;;;;;;;;;;;;;5069851;28;19912;-84
2021/06/19 07:00:57;;;;;;;;;;;;;;;;;;5066648;28;19931;-83
2021/06/19 07:03:23;;;;;;;;;;;;;;;;;;5069405;28;19913;-83
2021/06/19 07:05:49;;;;;;;;;;;;;;;;;;5069523;28;20318;-83
2021/06/19 07:08:15;;;;;;;;;;;;;;;;;;5065699;28;19915;-82
2021/06/19 07:10:41;;;;;;;;;;;;;;;;;;5065666;28;19936;-82
2021/06/19 07:13:07;;;;;;;;;;;;;;;;;;5066397;28;19913;-82
2021/06/19 07:15:33;;;;;;;;;;;;;;;;;;5071155;28;19916;-82
2021/06/19 07:17:59;;;;;;;;;;;;;;;;;;5076385;28;19917;-81
2021/06/19 07:20:25;;;;;;;;;;;;;;;;;;5069538;28;19913;-82
2021/06/19 07:22:51;;;;;;;;;;;;;;;;;;5067381;28;19920;-82
2021/06/19 07:25:17;;;;;;;;;;;;;;;;;;5064889;28;19919;-81
2021/06/19 07:27:46;;;;;;;;;;;;;;;;;;5065390;28;19912;-81
2021/06/19 07:30:12;;;;;;;;;;;;;;;;;;5062768;28;19924;-82
2021/06/19 07:32:38;;;;;;;;;;;;;;;;;;5059688;28;20407;-81
2021/06/19 07:35:04;;;;;;;;;;;;;;;;;;5065929;28;19916;-81
2021/06/19 07:37:30;;;;;;;;;;;;;;;;;;5067862;28;19912;-82
2021/06/19 07:39:56;;;;;;;;;;;;;;;;;;5066992;28;19912;-82
2021/06/19 07:42:22;;;;;;;;;;;;;;;;;;5069782;28;19913;-79
2021/06/19 07:44:47;;;;;;;;;;;;;;;;;;5061840;28;19948;-79
2021/06/19 07:47:13;;;;;;;;;;;;;;;;;;5071316;28;19948;-79
2021/06/19 07:49:39;;;;;;;;;;;;;;;;;;5068921;28;19913;-82
2021/06/19 07:52:05;;;;;;;;;;;;;;;;;;5070962;28;20369;-80
2021/06/19 07:54:36;;;;;;;;;;;;;;;;;;5062887;28;19992;-81
2021/06/19 07:57:02;;;;;;;;;;;;;;;;;;5054770;28;19913;-81
2021/06/19 07:59:28;;;;;;;;;;;;;;;;;;5065859;28;19909;-80
2021/06/19 08:01:54;;;;;;;;;;;;;;;;;;5065623;28;19916;-79
2021/06/19 08:04:20;;;;;;;;;;;;;;;;;;5069929;28;19909;-79
2021/06/19 08:06:46;;;;;;;;;;;;;;;;;;5073026;28;20469;-79
2021/06/19 08:09:12;;;;;;;;;;;;;;;;;;5067034;28;20050;-79
2021/06/19 08:11:38;;;;;;;;;;;;;;;;;;5060877;28;19917;-79
2021/06/19 08:14:04;;;;;;;;;;;;;;;;;;5064789;28;19909;-79
2021/06/19 08:16:30;;;;;;;;;;;;;;;;;;5073884;28;19917;-79
2021/06/19 08:18:56;;;;;;;;;;;;;;;;;;5061114;28;19942;-79
2021/06/19 08:21:22;;;;;;;;;;;;;;;;;;5063706;28;19916;-79
2021/06/19 08:23:48;;;;;;;;;;;;;;;;;;5069308;28;20414;-79
2021/06/19 08:26:14;;;;;;;;;;;;;;;;;;5078948;28;20382;-80
2021/06/19 08:28:40;;;;;;;;;;;;;;;;;;5075628;28;19981;-80
2021/06/19 08:31:06;;;;;;;;;;;;;;;;;;5060333;28;20447;-80
2021/06/19 08:33:31;;;;;;;;;;;;;;;;;;5065768;28;19920;-78
2021/06/19 08:35:57;;;;;;;;;;;;;;;;;;5063867;28;19917;-79
2021/06/19 08:38:23;;;;;;;;;;;;;;;;;;5079362;28;20026;-78
2021/06/19 08:40:49;;;;;;;;;;;;;;;;;;5074081;28;19912;-79
2021/06/19 08:43:17;;;;;;;;;;;;;;;;;;5079753;28;20398;-79
2021/06/19 08:45:42;;;;;;;;;;;;;;;;;;5070537;28;19917;-79
2021/06/19 08:48:08;;;;;;;;;;;;;;;;;;5073589;28;20424;-79
2021/06/19 08:50:37;;;;;;;;;;;;;;;;;;5073694;28;20407;-80
2021/06/19 08:53:02;;;;;;;;;;;;;;;;;;5075609;28;19910;-80
2021/06/19 08:55:28;;;;;;;;;;;;;;;;;;5070253;28;19920;-79
2021/06/19 08:57:54;;;;;;;;;;;;;;;;;;5069320;28;20409;-80
2021/06/19 09:00:20;;;;;;;;;;;;;;;;;;5070319;28;20058;-80
2021/06/19 09:02:48;;;;;;;;;;;;;;;;;;5075176;28;19913;-80
2021/06/19 09:05:14;;;;;;;;;;;;;;;;;;5069901;28;19921;-80
2021/06/19 09:07:40;;;;;;;;;;;;;;;;;;5063049;28;23542;-78
2021/06/19 09:10:05;;;;;;;;;;;;;;;;;;5067827;28;19917;-79
2021/06/19 09:12:31;;;;;;;;;;;;;;;;;;5074255;28;20010;-78
2021/06/19 09:14:57;;;;;;;;;;;;;;;;;;5072557;28;19916;-78
2021/06/19 09:17:23;;;;;;;;;;;;;;;;;;5072367;28;20003;-79
2021/06/19 09:19:49;;;;;;;;;;;;;;;;;;5069901;28;19913;-79
2021/06/19 09:22:15;;;;;;;;;;;;;;;;;;5070442;28;20380;-80
2021/06/19 09:24:41;;;;;;;;;;;;;;;;;;5063567;28;19920;-80
2021/06/19 09:27:07;;;;;;;;;;;;;;;;;;5069889;28;19912;-81
2021/06/19 09:29:33;;;;;;;;;;;;;;;;;;5068831;28;20627;-80
2021/06/19 09:31:59;;;;;;;;;;;;;;;;;;5070473;28;20287;-80
2021/06/19 09:34:25;;;;;;;;;;;;;;;;;;5070325;28;20002;-81
2021/06/19 09:36:51;;;;;;;;;;;;;;;;;;5069195;28;19958;-81
2021/06/19 09:39:17;;;;;;;;;;;;;;;;;;5067455;28;19913;-80
2021/06/19 09:41:43;;;;;;;;;;;;;;;;;;5071040;28;20289;-78
2021/06/19 09:44:09;;;;;;;;;;;;;;;;;;5074641;28;19917;-80
2021/06/19 09:46:35;;;;;;;;;;;;;;;;;;5075474;28;20350;-81
2021/06/19 09:49:01;;;;;;;;;;;;;;;;;;5066583;28;19912;-78
2021/06/19 09:51:28;;;;;;;;;;;;;;;;;;5076591;28;19919;-78
2021/06/19 09:53:54;;;;;;;;;;;;;;;;;;5072119;28;20349;-78
2021/06/19 09:56:20;;;;;;;;;;;;;;;;;;5072811;28;19916;-81
2021/06/19 09:58:46;;;;;;;;;;;;;;;;;;5075849;28;19916;-80
2021/06/19 10:01:12;;;;;;;;;;;;;;;;;;5071162;28;20042;-81
2021/06/19 10:03:37;;;;;;;;;;;;;;;;;;5070941;28;19919;-79
2021/06/19 10:06:03;;;;;;;;;;;;;;;;;;5068061;28;19913;-79
2021/06/19 10:08:29;;;;;;;;;;;;;;;;;;5062733;28;20022;-78
2021/06/19 10:10:55;;;;;;;;;;;;;;;;;;5064163;28;19920;-78
2021/06/19 10:13:22;;;;;;;;;;;;;;;;;;5065013;28;20420;-78
2021/06/19 10:15:48;;;;;;;;;;;;;;;;;;5065882;28;19962;-78
2021/06/19 10:18:13;;;;;;;;;;;;;;;;;;5069674;28;19912;-78
2021/06/19 10:20:39;;;;;;;;;;;;;;;;;;5076268;28;20293;-78
2021/06/19 10:23:05;;;;;;;;;;;;;;;;;;5068612;28;20003;-78
2021/06/19 10:25:32;;;;;;;;;;;;;;;;;;5070886;28;20263;-78
2021/06/19 10:27:58;;;;;;;;;;;;;;;;;;5068528;28;19913;-78
2021/06/19 10:30:24;;;;;;;;;;;;;;;;;;5067433;28;20435;-78
2021/06/19 10:32:51;;;;;;;;;;;;;;;;;;5071175;28;20322;-78
2021/06/19 10:35:17;;;;;;;;;;;;;;;;;;5070651;28;19924;-78
2021/06/19 10:37:43;;;;;;;;;;;;;;;;;;5066605;28;20326;-78
2021/06/19 10:40:09;;;;;;;;;;;;;;;;;;5067451;28;19961;-78
2021/06/19 10:42:35;;;;;;;;;;;;;;;;;;5063528;28;19968;-78
2021/06/19 10:45:00;;;;;;;;;;;;;;;;;;5071392;28;20015;-78
2021/06/19 10:47:26;;;;;;;;;;;;;;;;;;5067384;28;20395;-78
2021/06/19 10:49:52;;;;;;;;;;;;;;;;;;5071592;28;20282;-78
2021/06/19 10:52:18;;;;;;;;;;;;;;;;;;5065139;28;19916;-78
2021/06/19 10:54:45;;;;;;;;;;;;;;;;;;5072425;28;20365;-78
2021/06/19 10:57:11;;;;;;;;;;;;;;;;;;5068066;28;19990;-78
2021/06/19 10:59:37;;;;;;;;;;;;;;;;;;5061427;28;19913;-78
2021/06/19 11:02:03;;;;;;;;;;;;;;;;;;5070196;28;19956;-78
2021/06/19 11:04:29;;;;;;;;;;;;;;;;;;5063854;28;19995;-78
2021/06/19 11:06:55;;;;;;;;;;;;;;;;;;5067315;28;19913;-77
2021/06/19 11:09:26;;;;;;;;;;;;;;;;;;5069863;28;20290;-78
2021/06/19 11:11:52;;;;;;;;;;;;;;;;;;5063471;28;19909;-78
2021/06/19 11:14:18;;;;;;;;;;;;;;;;;;5065158;28;19919;-77
2021/06/19 11:16:44;;;;;;;;;;;;;;;;;;5066007;28;20275;-77
2021/06/19 11:19:10;;;;;;;;;;;;;;;;;;5069286;28;20379;-77
2021/06/19 11:21:38;;;;;;;;;;;;;;;;;;5066949;28;19931;-77
2021/06/19 11:24:04;;;;;;;;;;;;;;;;;;5070715;28;20040;-78
2021/06/19 11:26:30;;;;;;;;;;;;;;;;;;5065372;28;19924;-77
2021/06/19 11:28:56;;;;;;;;;;;;;;;;;;5064009;28;20274;-77
2021/06/19 11:31:22;;;;;;;;;;;;;;;;;;5065935;28;19928;-77
2021/06/19 11:33:50;;;;;;;;;;;;;;;;;;5076173;28;20012;-77
2021/06/19 11:36:16;;;;;;;;;;;;;;;;;;5066649;28;20022;-78
2021/06/19 11:38:42;;;;;;;;;;;;;;;;;;5062181;28;22499;-78
2021/06/19 11:41:09;;;;;;;;;;;;;;;;;;5063700;28;20005;-77
2021/06/19 11:43:34;;;;;;;;;;;;;;;;;;5068991;28;20296;-78
2021/06/19 11:46:00;;;;;;;;;;;;;;;;;;5072409;28;19918;-77
2021/06/19 11:48:26;;;;;;;;;;;;;;;;;;5069910;28;19912;-78
2021/06/19 11:50:52;;;;;;;;;;;;;;;;;;5068994;28;19912;-78
2021/06/19 11:53:18;;;;;;;;;;;;;;;;;;5070954;28;19952;-78
2021/06/19 11:55:44;;;;;;;;;;;;;;;;;;5063210;28;19920;-78
2021/06/19 11:58:10;;;;;;;;;;;;;;;;;;5071819;28;19913;-78
2021/06/19 12:00:36;;;;;;;;;;;;;;;;;;5072034;28;19940;-78
2021/06/19 12:03:02;;;;;;;;;;;;;;;;;;5057344;28;19968;-77
2021/06/19 12:05:28;;;;;;;;;;;;;;;;;;5065927;28;19919;-77
2021/06/19 12:07:54;;;;;;;;;;;;;;;;;;5064453;28;19917;-78
2021/06/19 12:10:19;;;;;;;;;;;;;;;;;;5071120;28;19913;-78
2021/06/19 12:12:45;;;;;;;;;;;;;;;;;;5066864;28;19913;-77
2021/06/19 12:15:11;;;;;;;;;;;;;;;;;;5065702;28;19923;-77
2021/06/19 12:17:37;;;;;;;;;;;;;;;;;;5065909;28;19921;-77
2021/06/19 12:20:03;;;;;;;;;;;;;;;;;;5059641;28;20379;-77
2021/06/19 12:22:29;;;;;;;;;;;;;;;;;;5064605;28;20013;-78
2021/06/19 12:24:55;;;;;;;;;;;;;;;;;;5068173;28;20382;-77
2021/06/19 12:27:21;;;;;;;;;;;;;;;;;;5065803;28;19919;-77
2021/06/19 12:29:47;;;;;;;;;;;;;;;;;;5061847;28;20438;-77
2021/06/19 12:32:12;;;;;;;;;;;;;;;;;;5063194;28;19917;-78
2021/06/19 12:34:38;;;;;;;;;;;;;;;;;;5068160;28;19917;-77
2021/06/19 12:37:04;;;;;;;;;;;;;;;;;;5070496;28;20260;-77
2021/06/19 12:39:30;;;;;;;;;;;;;;;;;;5064997;28;19913;-77
2021/06/19 12:41:56;;;;;;;;;;;;;;;;;;5061269;28;19928;-77
2021/06/19 12:44:22;;;;;;;;;;;;;;;;;;5068940;28;19920;-78
2021/06/19 12:46:48;;;;;;;;;;;;;;;;;;5068748;28;19913;-77
2021/06/19 12:49:14;;;;;;;;;;;;;;;;;;5068427;28;19916;-77
2021/06/19 12:51:40;;;;;;;;;;;;;;;;;;5063090;28;19940;-77
2021/06/19 12:54:06;;;;;;;;;;;;;;;;;;5062028;28;20283;-78
2021/06/19 12:56:32;;;;;;;;;;;;;;;;;;5067447;28;19917;-77
2021/06/19 12:58:58;;;;;;;;;;;;;;;;;;5056548;28;19912;-77
2021/06/19 13:01:23;;;;;;;;;;;;;;;;;;5072709;28;19912;-77
2021/06/19 13:03:50;;;;;;;;;;;;;;;;;;5063986;28;19956;-77
2021/06/19 13:06:16;;;;;;;;;;;;;;;;;;5068549;28;20375;-78
2021/06/19 13:08:42;;;;;;;;;;;;;;;;;;5065734;28;19916;-78
2021/06/19 13:11:08;;;;;;;;;;;;;;;;;;5067765;28;19928;-77
2021/06/19 13:13:34;;;;;;;;;;;;;;;;;;5063716;28;19912;-78
2021/06/19 13:16:00;;;;;;;;;;;;;;;;;;5074692;28;19916;-77
2021/06/19 13:18:26;;;;;;;;;;;;;;;;;;5070279;28;19912;-78
2021/06/19 13:20:52;;;;;;;;;;;;;;;;;;5068299;28;19919;-77
2021/06/19 13:23:18;;;;;;;;;;;;;;;;;;5065857;28;20320;-77
2021/06/19 13:25:44;;;;;;;;;;;;;;;;;;5068750;28;19920;-77
2021/06/19 13:28:10;;;;;;;;;;;;;;;;;;5073188;28;20275;-77
2021/06/19 13:30:36;;;;;;;;;;;;;;;;;;5063752;28;19912;-77
2021/06/19 13:33:02;;;;;;;;;;;;;;;;;;5067399;28;19913;-78
2021/06/19 13:35:28;;;;;;;;;;;;;;;;;;5071617;28;20008;-77
2021/06/19 13:37:54;;;;;;;;;;;;;;;;;;5064650;28;20042;-77
2021/06/19 13:40:20;;;;;;;;;;;;;;;;;;5066750;28;19919;-77
2021/06/19 13:42:45;;;;;;;;;;;;;;;;;;5065510;28;20380;-77
2021/06/19 13:45:11;;;;;;;;;;;;;;;;;;5063366;28;19994;-77
2021/06/19 13:47:37;;;;;;;;;;;;;;;;;;5070054;28;20381;-77
2021/06/19 13:50:03;;;;;;;;;;;;;;;;;;5066973;28;19913;-77
2021/06/19 13:52:29;;;;;;;;;;;;;;;;;;5069694;28;19917;-77
2021/06/19 13:54:55;;;;;;;;;;;;;;;;;;5063674;28;20390;-77
2021/06/19 13:57:21;;;;;;;;;;;;;;;;;;5073464;28;19920;-77
2021/06/19 13:59:47;;;;;;;;;;;;;;;;;;5066231;28;19913;-77
2021/06/19 14:02:13;;;;;;;;;;;;;;;;;;5069735;28;19984;-77
2021/06/19 14:04:39;;;;;;;;;;;;;;;;;;5074065;28;19912;-77
2021/06/19 14:07:05;;;;;;;;;;;;;;;;;;5060591;28;19959;-78
2021/06/19 14:09:31;;;;;;;;;;;;;;;;;;5073709;28;20406;-77
2021/06/19 14:11:57;;;;;;;;;;;;;;;;;;5068228;28;19969;-77
2021/06/19 14:14:23;;;;;;;;;;;;;;;;;;5075019;28;19916;-76
2021/06/19 14:16:49;;;;;;;;;;;;;;;;;;5070486;28;20400;-77
2021/06/19 14:19:15;;;;;;;;;;;;;;;;;;5068124;28;19919;-77
2021/06/19 14:21:41;;;;;;;;;;;;;;;;;;5065499;28;19913;-77
2021/06/19 14:24:07;;;;;;;;;;;;;;;;;;5066866;28;20402;-77
2021/06/19 14:26:35;;;;;;;;;;;;;;;;;;5070780;28;19913;-77
2021/06/19 14:29:01;;;;;;;;;;;;;;;;;;5074263;28;19913;-77
2021/06/19 14:31:27;;;;;;;;;;;;;;;;;;5072032;28;19978;-77
2021/06/19 14:33:53;;;;;;;;;;;;;;;;;;5073129;28;19913;-77
2021/06/19 14:36:19;;;;;;;;;;;;;;;;;;5069089;28;19924;-77
2021/06/19 14:38:45;;;;;;;;;;;;;;;;;;5064358;28;20359;-77
2021/06/19 14:41:11;;;;;;;;;;;;;;;;;;5065178;28;19913;-77
2021/06/19 14:43:37;;;;;;;;;;;;;;;;;;5060709;28;19912;-78
2021/06/19 14:46:03;;;;;;;;;;;;;;;;;;5067300;28;19944;-77
2021/06/19 14:48:29;;;;;;;;;;;;;;;;;;5072449;28;20011;-77
2021/06/19 14:50:54;;;;;;;;;;;;;;;;;;5061666;28;19920;-77
2021/06/19 14:53:21;;;;;;;;;;;;;;;;;;5065890;28;19912;-77
2021/06/19 14:55:47;;;;;;;;;;;;;;;;;;5073897;28;19927;-77
2021/06/19 14:58:15;;;;;;;;;;;;;;;;;;5066965;28;19912;-77
2021/06/19 15:00:40;;;;;;;;;;;;;;;;;;5062978;28;20426;-77
2021/06/19 15:03:06;;;;;;;;;;;;;;;;;;5074648;28;19915;-77
2021/06/19 15:05:32;;;;;;;;;;;;;;;;;;5064952;28;19912;-77
2021/06/19 15:07:58;;;;;;;;;;;;;;;;;;5064565;28;19920;-78
2021/06/19 15:10:24;;;;;;;;;;;;;;;;;;5064567;28;19912;-77
2021/06/19 15:12:50;;;;;;;;;;;;;;;;;;5064178;28;20330;-77
2021/06/19 15:15:16;;;;;;;;;;;;;;;;;;5068605;28;19924;-77
2021/06/19 15:17:42;;;;;;;;;;;;;;;;;;5061112;28;19909;-77
2021/06/19 15:20:08;;;;;;;;;;;;;;;;;;5066213;28;19913;-77
2021/06/19 15:22:34;;;;;;;;;;;;;;;;;;5067542;28;19959;-77
2021/06/19 15:25:00;;;;;;;;;;;;;;;;;;5066151;28;19909;-76
2021/06/19 15:27:26;;;;;;;;;;;;;;;;;;5067489;28;20007;-77
2021/06/19 15:29:52;;;;;;;;;;;;;;;;;;5068188;28;19962;-77
2021/06/19 15:32:18;;;;;;;;;;;;;;;;;;5062516;28;19925;-77
2021/06/19 15:34:44;;;;;;;;;;;;;;;;;;5071944;28;19912;-77
2021/06/19 15:37:10;;;;;;;;;;;;;;;;;;5065681;28;19999;-77
2021/06/19 15:39:35;;;;;;;;;;;;;;;;;;5061665;28;20564;-77
2021/06/19 15:42:01;;;;;;;;;;;;;;;;;;5073015;28;19912;-77
2021/06/19 15:44:27;;;;;;;;;;;;;;;;;;5070230;28;19939;-77
2021/06/19 15:46:53;;;;;;;;;;;;;;;;;;5070259;28;19959;-77
2021/06/19 15:49:19;;;;;;;;;;;;;;;;;;5074654;28;19916;-77
2021/06/19 15:51:45;;;;;;;;;;;;;;;;;;5064673;28;19913;-76
2021/06/19 15:54:14;;;;;;;;;;;;;;;;;;5066037;28;19912;-76
2021/06/19 15:56:40;;;;;;;;;;;;;;;;;;5059099;28;19920;-76
2021/06/19 15:59:06;;;;;;;;;;;;;;;;;;5067156;28;19970;-77
2021/06/19 16:01:32;;;;;;;;;;;;;;;;;;5068709;28;19912;-77
2021/06/19 16:03:57;;;;;;;;;;;;;;;;;;5069789;28;20421;-77
2021/06/19 16:06:23;;;;;;;;;;;;;;;;;;5066134;28;19935;-77
2021/06/19 16:08:49;;;;;;;;;;;;;;;;;;5071892;28;19917;-77
2021/06/19 16:11:15;;;;;;;;;;;;;;;;;;5062647;28;19913;-77
2021/06/19 16:13:41;;;;;;;;;;;;;;;;;;5068940;28;20323;-78
2021/06/19 16:16:07;;;;;;;;;;;;;;;;;;5063127;28;20291;-77
2021/06/19 16:18:33;;;;;;;;;;;;;;;;;;5063976;28;19912;-77
2021/06/19 16:20:59;;;;;;;;;;;;;;;;;;5065672;28;19917;-77
2021/06/19 16:23:25;;;;;;;;;;;;;;;;;;5064646;28;20445;-77
2021/06/19 16:25:51;;;;;;;;;;;;;;;;;;5069144;28;19915;-77
2021/06/19 16:28:17;;;;;;;;;;;;;;;;;;5059584;28;20354;-77
2021/06/19 16:30:43;;;;;;;;;;;;;;;;;;5068927;28;20019;-77
2021/06/19 16:33:08;;;;;;;;;;;;;;;;;;5072003;28;19920;-77
2021/06/19 16:35:34;;;;;;;;;;;;;;;;;;5073449;28;19925;-77
2021/06/19 16:38:00;;;;;;;;;;;;;;;;;;5065749;28;20268;-77
2021/06/19 16:40:26;;;;;;;;;;;;;;;;;;5068912;28;19947;-78